sensor_id;sensor_type;location;lat;lon;timestamp;P1;durP1;ratioP1;P2;durP2;ratioP2
78686;SDS011;68002;52.310;6.990;2023-02-28T00:01:21;6.43;;;5.15;;
78686;SDS011;68002;52.310;6.990;2023-02-28T00:03:46;9.55;;;5.25;;
78686;SDS011;68002;52.310;6.990;2023-02-28T00:06:12;10.93;;;6.93;;
78686;SDS011;68002;52.310;6.990;2023-02-28T00:08:37;8.17;;;5.73;;
78686;SDS011;68002;52.310;6.990;2023-02-28T00:11:03;6.93;;;4.88;;
78686;SDS011;68002;52.310;6.990;2023-02-28T00:13:30;7.60;;;3.85;;
78686;SDS011;68002;52.310;6.990;2023-02-28T00:16:03;9.15;;;4.72;;
78686;SDS011;68002;52.310;6.990;2023-02-28T00:18:30;8.02;;;5.15;;
78686;SDS011;68002;52.310;6.990;2023-02-28T00:20:56;7.20;;;4.68;;
78686;SDS011;68002;52.310;6.990;2023-02-28T00:23:22;6.85;;;4.93;;
78686;SDS011;68002;52.310;6.990;2023-02-28T00:25:47;8.33;;;5.03;;
78686;SDS011;68002;52.310;6.990;2023-02-28T00:28:12;12.30;;;4.97;;
78686;SDS011;68002;52.310;6.990;2023-02-28T00:30:37;7.60;;;5.40;;
78686;SDS011;68002;52.310;6.990;2023-02-28T00:33:03;4.87;;;3.10;;
78686;SDS011;68002;52.310;6.990;2023-02-28T00:35:28;11.80;;;5.53;;
78686;SDS011;68002;52.310;6.990;2023-02-28T00:37:53;9.17;;;8.27;;
78686;SDS011;68002;52.310;6.990;2023-02-28T00:40:18;7.03;;;3.90;;
78686;SDS011;68002;52.310;6.990;2023-02-28T00:42:43;6.80;;;4.40;;
78686;SDS011;68002;52.310;6.990;2023-02-28T00:45:09;6.13;;;3.83;;
78686;SDS011;68002;52.310;6.990;2023-02-28T00:47:34;5.80;;;3.83;;
78686;SDS011;68002;52.310;6.990;2023-02-28T00:50:00;8.45;;;4.30;;
78686;SDS011;68002;52.310;6.990;2023-02-28T00:52:25;8.32;;;4.75;;
78686;SDS011;68002;52.310;6.990;2023-02-28T00:54:51;8.17;;;5.20;;
78686;SDS011;68002;52.310;6.990;2023-02-28T00:57:16;8.57;;;4.70;;
78686;SDS011;68002;52.310;6.990;2023-02-28T00:59:41;6.10;;;3.60;;
78686;SDS011;68002;52.310;6.990;2023-02-28T01:02:06;7.10;;;4.60;;
78686;SDS011;68002;52.310;6.990;2023-02-28T01:04:32;7.40;;;4.37;;
78686;SDS011;68002;52.310;6.990;2023-02-28T01:06:57;7.50;;;4.27;;
78686;SDS011;68002;52.310;6.990;2023-02-28T01:09:22;7.57;;;3.73;;
78686;SDS011;68002;52.310;6.990;2023-02-28T01:11:47;8.30;;;4.97;;
78686;SDS011;68002;52.310;6.990;2023-02-28T01:14:13;7.03;;;4.57;;
78686;SDS011;68002;52.310;6.990;2023-02-28T01:16:40;9.63;;;4.50;;
78686;SDS011;68002;52.310;6.990;2023-02-28T01:19:05;7.78;;;4.97;;
78686;SDS011;68002;52.310;6.990;2023-02-28T01:21:30;5.97;;;3.33;;
78686;SDS011;68002;52.310;6.990;2023-02-28T01:23:56;7.22;;;3.83;;
78686;SDS011;68002;52.310;6.990;2023-02-28T01:26:22;7.20;;;4.68;;
78686;SDS011;68002;52.310;6.990;2023-02-28T01:28:48;6.53;;;4.50;;
78686;SDS011;68002;52.310;6.990;2023-02-28T01:31:14;6.40;;;4.43;;
78686;SDS011;68002;52.310;6.990;2023-02-28T01:33:40;8.77;;;4.78;;
78686;SDS011;68002;52.310;6.990;2023-02-28T01:36:07;6.70;;;3.50;;
78686;SDS011;68002;52.310;6.990;2023-02-28T01:38:35;6.60;;;5.32;;
78686;SDS011;68002;52.310;6.990;2023-02-28T01:41:01;8.05;;;4.57;;
78686;SDS011;68002;52.310;6.990;2023-02-28T01:43:27;8.68;;;4.80;;
78686;SDS011;68002;52.310;6.990;2023-02-28T01:45:54;7.50;;;4.43;;
78686;SDS011;68002;52.310;6.990;2023-02-28T01:48:23;6.10;;;4.13;;
78686;SDS011;68002;52.310;6.990;2023-02-28T01:50:56;6.90;;;4.32;;
78686;SDS011;68002;52.310;6.990;2023-02-28T01:53:29;7.97;;;4.90;;
78686;SDS011;68002;52.310;6.990;2023-02-28T01:55:57;9.13;;;6.72;;
78686;SDS011;68002;52.310;6.990;2023-02-28T01:58:22;7.33;;;4.40;;
78686;SDS011;68002;52.310;6.990;2023-02-28T02:00:48;7.85;;;4.90;;
78686;SDS011;68002;52.310;6.990;2023-02-28T02:03:14;5.97;;;4.22;;
78686;SDS011;68002;52.310;6.990;2023-02-28T02:05:41;7.97;;;4.80;;
78686;SDS011;68002;52.310;6.990;2023-02-28T02:08:20;7.47;;;4.57;;
78686;SDS011;68002;52.310;6.990;2023-02-28T02:10:48;7.55;;;3.28;;
78686;SDS011;68002;52.310;6.990;2023-02-28T02:13:25;5.75;;;4.07;;
78686;SDS011;68002;52.310;6.990;2023-02-28T02:18:41;6.10;;;4.30;;
78686;SDS011;68002;52.310;6.990;2023-02-28T02:38:08;7.03;;;4.55;;
78686;SDS011;68002;52.310;6.990;2023-02-28T02:45:45;6.85;;;3.90;;
78686;SDS011;68002;52.310;6.990;2023-02-28T02:48:18;9.32;;;5.35;;
78686;SDS011;68002;52.310;6.990;2023-02-28T02:50:50;7.28;;;5.35;;
78686;SDS011;68002;52.310;6.990;2023-02-28T02:53:21;7.95;;;3.92;;
78686;SDS011;68002;52.310;6.990;2023-02-28T02:55:52;7.05;;;3.97;;
78686;SDS011;68002;52.310;6.990;2023-02-28T02:58:19;6.90;;;2.60;;
78686;SDS011;68002;52.310;6.990;2023-02-28T03:00:50;7.30;;;4.85;;
78686;SDS011;68002;52.310;6.990;2023-02-28T03:03:20;9.95;;;6.13;;
78686;SDS011;68002;52.310;6.990;2023-02-28T03:05:48;7.10;;;4.28;;
78686;SDS011;68002;52.310;6.990;2023-02-28T03:08:15;7.80;;;4.35;;
78686;SDS011;68002;52.310;6.990;2023-02-28T03:10:42;5.95;;;4.07;;
78686;SDS011;68002;52.310;6.990;2023-02-28T03:18:22;8.05;;;3.80;;
78686;SDS011;68002;52.310;6.990;2023-02-28T03:24:07;7.43;;;4.82;;
78686;SDS011;68002;52.310;6.990;2023-02-28T03:26:36;6.88;;;4.10;;
78686;SDS011;68002;52.310;6.990;2023-02-28T03:29:08;7.13;;;4.75;;
78686;SDS011;68002;52.310;6.990;2023-02-28T03:31:38;8.02;;;5.07;;
78686;SDS011;68002;52.310;6.990;2023-02-28T03:34:10;10.02;;;5.20;;
78686;SDS011;68002;52.310;6.990;2023-02-28T03:36:43;6.63;;;4.30;;
78686;SDS011;68002;52.310;6.990;2023-02-28T03:39:22;7.53;;;4.78;;
78686;SDS011;68002;52.310;6.990;2023-02-28T03:41:56;6.88;;;3.67;;
78686;SDS011;68002;52.310;6.990;2023-02-28T03:47:00;8.35;;;4.25;;
78686;SDS011;68002;52.310;6.990;2023-02-28T03:49:34;8.48;;;4.72;;
78686;SDS011;68002;52.310;6.990;2023-02-28T03:52:05;8.23;;;4.78;;
78686;SDS011;68002;52.310;6.990;2023-02-28T03:54:33;7.28;;;4.60;;
78686;SDS011;68002;52.310;6.990;2023-02-28T03:57:04;5.90;;;4.43;;
78686;SDS011;68002;52.310;6.990;2023-02-28T03:59:41;7.03;;;4.45;;
78686;SDS011;68002;52.310;6.990;2023-02-28T04:02:12;5.97;;;4.72;;
78686;SDS011;68002;52.310;6.990;2023-02-28T04:04:37;6.90;;;4.93;;
78686;SDS011;68002;52.310;6.990;2023-02-28T04:07:04;11.23;;;5.60;;
78686;SDS011;68002;52.310;6.990;2023-02-28T04:09:31;8.20;;;4.90;;
78686;SDS011;68002;52.310;6.990;2023-02-28T04:11:57;8.20;;;6.60;;
78686;SDS011;68002;52.310;6.990;2023-02-28T04:14:22;9.33;;;5.10;;
78686;SDS011;68002;52.310;6.990;2023-02-28T04:16:48;8.38;;;3.47;;
78686;SDS011;68002;52.310;6.990;2023-02-28T04:19:13;6.67;;;4.53;;
78686;SDS011;68002;52.310;6.990;2023-02-28T04:24:09;6.95;;;3.92;;
78686;SDS011;68002;52.310;6.990;2023-02-28T04:26:36;7.05;;;4.55;;
78686;SDS011;68002;52.310;6.990;2023-02-28T04:29:03;8.57;;;5.57;;
78686;SDS011;68002;52.310;6.990;2023-02-28T04:31:29;7.53;;;5.03;;
78686;SDS011;68002;52.310;6.990;2023-02-28T04:33:54;6.13;;;4.20;;
78686;SDS011;68002;52.310;6.990;2023-02-28T04:36:20;8.27;;;4.90;;
78686;SDS011;68002;52.310;6.990;2023-02-28T04:38:45;8.63;;;5.43;;
78686;SDS011;68002;52.310;6.990;2023-02-28T04:41:11;7.38;;;5.38;;
78686;SDS011;68002;52.310;6.990;2023-02-28T04:43:37;7.13;;;4.82;;
78686;SDS011;68002;52.310;6.990;2023-02-28T04:46:03;8.13;;;5.10;;
78686;SDS011;68002;52.310;6.990;2023-02-28T04:48:30;5.90;;;5.15;;
78686;SDS011;68002;52.310;6.990;2023-02-28T04:51:01;7.53;;;5.72;;
78686;SDS011;68002;52.310;6.990;2023-02-28T04:53:27;9.32;;;6.47;;
78686;SDS011;68002;52.310;6.990;2023-02-28T04:55:53;5.72;;;3.70;;
78686;SDS011;68002;52.310;6.990;2023-02-28T04:58:19;7.23;;;4.57;;
78686;SDS011;68002;52.310;6.990;2023-02-28T05:00:44;6.60;;;3.50;;
78686;SDS011;68002;52.310;6.990;2023-02-28T05:03:09;6.10;;;4.80;;
78686;SDS011;68002;52.310;6.990;2023-02-28T05:05:34;7.67;;;5.47;;
78686;SDS011;68002;52.310;6.990;2023-02-28T05:07:59;6.90;;;5.40;;
78686;SDS011;68002;52.310;6.990;2023-02-28T05:10:25;7.27;;;4.97;;
78686;SDS011;68002;52.310;6.990;2023-02-28T05:12:50;9.97;;;5.47;;
78686;SDS011;68002;52.310;6.990;2023-02-28T05:15:15;7.07;;;4.97;;
78686;SDS011;68002;52.310;6.990;2023-02-28T05:17:41;8.05;;;5.72;;
78686;SDS011;68002;52.310;6.990;2023-02-28T05:20:07;8.50;;;5.88;;
78686;SDS011;68002;52.310;6.990;2023-02-28T05:22:33;8.70;;;5.70;;
78686;SDS011;68002;52.310;6.990;2023-02-28T05:24:58;8.67;;;5.70;;
78686;SDS011;68002;52.310;6.990;2023-02-28T05:27:23;7.37;;;3.70;;
78686;SDS011;68002;52.310;6.990;2023-02-28T05:29:49;8.23;;;6.17;;
78686;SDS011;68002;52.310;6.990;2023-02-28T05:32:14;9.17;;;5.67;;
78686;SDS011;68002;52.310;6.990;2023-02-28T05:34:39;8.97;;;6.07;;
78686;SDS011;68002;52.310;6.990;2023-02-28T05:37:05;5.93;;;4.85;;
78686;SDS011;68002;52.310;6.990;2023-02-28T05:39:35;7.70;;;5.07;;
78686;SDS011;68002;52.310;6.990;2023-02-28T05:42:01;9.00;;;6.03;;
78686;SDS011;68002;52.310;6.990;2023-02-28T05:44:26;8.27;;;5.17;;
78686;SDS011;68002;52.310;6.990;2023-02-28T05:46:51;7.83;;;5.77;;
78686;SDS011;68002;52.310;6.990;2023-02-28T05:49:16;10.53;;;6.47;;
78686;SDS011;68002;52.310;6.990;2023-02-28T05:51:41;7.37;;;5.60;;
78686;SDS011;68002;52.310;6.990;2023-02-28T05:54:07;11.00;;;6.30;;
78686;SDS011;68002;52.310;6.990;2023-02-28T05:56:32;7.20;;;5.53;;
78686;SDS011;68002;52.310;6.990;2023-02-28T05:58:58;6.10;;;4.05;;
78686;SDS011;68002;52.310;6.990;2023-02-28T06:01:33;7.83;;;6.03;;
78686;SDS011;68002;52.310;6.990;2023-02-28T06:04:00;7.68;;;6.03;;
78686;SDS011;68002;52.310;6.990;2023-02-28T06:06:26;7.85;;;4.68;;
78686;SDS011;68002;52.310;6.990;2023-02-28T06:08:52;6.47;;;4.88;;
78686;SDS011;68002;52.310;6.990;2023-02-28T06:11:17;7.13;;;4.83;;
78686;SDS011;68002;52.310;6.990;2023-02-28T06:13:42;7.97;;;5.90;;
78686;SDS011;68002;52.310;6.990;2023-02-28T06:16:09;7.93;;;5.17;;
78686;SDS011;68002;52.310;6.990;2023-02-28T06:18:35;8.30;;;5.28;;
78686;SDS011;68002;52.310;6.990;2023-02-28T06:21:01;8.00;;;5.17;;
78686;SDS011;68002;52.310;6.990;2023-02-28T06:23:26;8.50;;;5.87;;
78686;SDS011;68002;52.310;6.990;2023-02-28T06:25:51;7.47;;;5.70;;
78686;SDS011;68002;52.310;6.990;2023-02-28T06:28:16;7.87;;;5.67;;
78686;SDS011;68002;52.310;6.990;2023-02-28T06:30:41;9.70;;;5.83;;
78686;SDS011;68002;52.310;6.990;2023-02-28T06:33:07;6.33;;;4.47;;
78686;SDS011;68002;52.310;6.990;2023-02-28T06:35:32;7.83;;;5.13;;
78686;SDS011;68002;52.310;6.990;2023-02-28T06:37:57;6.23;;;5.40;;
78686;SDS011;68002;52.310;6.990;2023-02-28T06:40:22;8.60;;;5.87;;
78686;SDS011;68002;52.310;6.990;2023-02-28T06:42:48;6.67;;;4.70;;
78686;SDS011;68002;52.310;6.990;2023-02-28T06:45:13;7.97;;;4.70;;
78686;SDS011;68002;52.310;6.990;2023-02-28T06:47:39;7.30;;;5.68;;
78686;SDS011;68002;52.310;6.990;2023-02-28T06:50:07;6.78;;;4.70;;
78686;SDS011;68002;52.310;6.990;2023-02-28T06:52:35;7.53;;;4.38;;
78686;SDS011;68002;52.310;6.990;2023-02-28T06:55:01;11.67;;;7.17;;
78686;SDS011;68002;52.310;6.990;2023-02-28T06:57:29;6.73;;;4.17;;
78686;SDS011;68002;52.310;6.990;2023-02-28T06:59:55;5.50;;;4.30;;
78686;SDS011;68002;52.310;6.990;2023-02-28T07:02:20;6.90;;;4.77;;
78686;SDS011;68002;52.310;6.990;2023-02-28T07:04:45;6.33;;;5.00;;
78686;SDS011;68002;52.310;6.990;2023-02-28T07:07:10;6.50;;;4.70;;
78686;SDS011;68002;52.310;6.990;2023-02-28T07:09:36;6.80;;;4.13;;
78686;SDS011;68002;52.310;6.990;2023-02-28T07:12:01;7.53;;;4.87;;
78686;SDS011;68002;52.310;6.990;2023-02-28T07:14:26;5.90;;;4.20;;
78686;SDS011;68002;52.310;6.990;2023-02-28T07:16:51;5.77;;;3.67;;
78686;SDS011;68002;52.310;6.990;2023-02-28T07:19:16;4.87;;;3.73;;
78686;SDS011;68002;52.310;6.990;2023-02-28T07:21:42;5.33;;;3.07;;
78686;SDS011;68002;52.310;6.990;2023-02-28T07:24:07;4.97;;;2.90;;
78686;SDS011;68002;52.310;6.990;2023-02-28T07:26:32;6.40;;;4.20;;
78686;SDS011;68002;52.310;6.990;2023-02-28T07:28:57;4.73;;;3.80;;
78686;SDS011;68002;52.310;6.990;2023-02-28T07:31:23;5.27;;;4.03;;
78686;SDS011;68002;52.310;6.990;2023-02-28T07:33:48;5.63;;;4.63;;
78686;SDS011;68002;52.310;6.990;2023-02-28T07:36:14;6.07;;;4.57;;
78686;SDS011;68002;52.310;6.990;2023-02-28T07:38:42;5.32;;;3.50;;
78686;SDS011;68002;52.310;6.990;2023-02-28T07:41:08;4.68;;;3.33;;
78686;SDS011;68002;52.310;6.990;2023-02-28T07:43:33;4.32;;;3.30;;
78686;SDS011;68002;52.310;6.990;2023-02-28T07:46:03;4.55;;;3.17;;
78686;SDS011;68002;52.310;6.990;2023-02-28T07:48:30;3.97;;;3.13;;
78686;SDS011;68002;52.310;6.990;2023-02-28T07:50:55;4.27;;;2.87;;
78686;SDS011;68002;52.310;6.990;2023-02-28T07:53:21;4.30;;;3.53;;
78686;SDS011;68002;52.310;6.990;2023-02-28T07:55:46;5.87;;;3.13;;
78686;SDS011;68002;52.310;6.990;2023-02-28T07:58:12;5.30;;;3.23;;
78686;SDS011;68002;52.310;6.990;2023-02-28T08:00:37;3.33;;;2.83;;
78686;SDS011;68002;52.310;6.990;2023-02-28T08:03:02;4.17;;;3.77;;
78686;SDS011;68002;52.310;6.990;2023-02-28T08:05:28;3.67;;;2.00;;
78686;SDS011;68002;52.310;6.990;2023-02-28T08:07:53;5.20;;;2.70;;
78686;SDS011;68002;52.310;6.990;2023-02-28T08:10:18;4.30;;;3.07;;
78686;SDS011;68002;52.310;6.990;2023-02-28T08:12:43;3.77;;;3.07;;
78686;SDS011;68002;52.310;6.990;2023-02-28T08:15:08;3.97;;;2.27;;
78686;SDS011;68002;52.310;6.990;2023-02-28T08:17:34;4.38;;;2.17;;
78686;SDS011;68002;52.310;6.990;2023-02-28T08:19:59;3.97;;;3.10;;
78686;SDS011;68002;52.310;6.990;2023-02-28T08:22:24;3.13;;;2.63;;
78686;SDS011;68002;52.310;6.990;2023-02-28T08:24:49;3.07;;;2.47;;
78686;SDS011;68002;52.310;6.990;2023-02-28T08:27:15;3.27;;;2.73;;
78686;SDS011;68002;52.310;6.990;2023-02-28T08:29:40;4.20;;;2.93;;
78686;SDS011;68002;52.310;6.990;2023-02-28T08:32:05;4.23;;;3.10;;
78686;SDS011;68002;52.310;6.990;2023-02-28T08:34:32;5.95;;;2.75;;
78686;SDS011;68002;52.310;6.990;2023-02-28T08:36:57;3.05;;;2.50;;
78686;SDS011;68002;52.310;6.990;2023-02-28T08:39:22;4.23;;;3.17;;
78686;SDS011;68002;52.310;6.990;2023-02-28T08:41:48;4.93;;;2.73;;
78686;SDS011;68002;52.310;6.990;2023-02-28T08:44:13;4.97;;;2.47;;
78686;SDS011;68002;52.310;6.990;2023-02-28T08:46:38;3.03;;;2.53;;
78686;SDS011;68002;52.310;6.990;2023-02-28T08:49:03;3.67;;;2.10;;
78686;SDS011;68002;52.310;6.990;2023-02-28T08:51:29;3.17;;;2.10;;
78686;SDS011;68002;52.310;6.990;2023-02-28T08:53:55;4.18;;;2.88;;
78686;SDS011;68002;52.310;6.990;2023-02-28T08:56:23;4.72;;;2.58;;
78686;SDS011;68002;52.310;6.990;2023-02-28T08:58:49;3.80;;;2.42;;
78686;SDS011;68002;52.310;6.990;2023-02-28T09:03:42;3.45;;;2.40;;
78686;SDS011;68002;52.310;6.990;2023-02-28T09:06:08;3.08;;;2.33;;
78686;SDS011;68002;52.310;6.990;2023-02-28T09:08:35;3.67;;;2.47;;
78686;SDS011;68002;52.310;6.990;2023-02-28T09:11:01;3.00;;;2.15;;
78686;SDS011;68002;52.310;6.990;2023-02-28T09:13:27;2.88;;;2.40;;
78686;SDS011;68002;52.310;6.990;2023-02-28T09:15:53;2.75;;;2.30;;
78686;SDS011;68002;52.310;6.990;2023-02-28T09:18:19;2.85;;;2.40;;
78686;SDS011;68002;52.310;6.990;2023-02-28T09:20:44;3.13;;;2.30;;
78686;SDS011;68002;52.310;6.990;2023-02-28T09:23:10;3.72;;;2.13;;
78686;SDS011;68002;52.310;6.990;2023-02-28T09:25:37;2.85;;;2.15;;
78686;SDS011;68002;52.310;6.990;2023-02-28T09:28:02;3.73;;;2.30;;
78686;SDS011;68002;52.310;6.990;2023-02-28T09:30:28;2.42;;;2.20;;
78686;SDS011;68002;52.310;6.990;2023-02-28T09:32:53;4.43;;;4.00;;
78686;SDS011;68002;52.310;6.990;2023-02-28T09:35:19;2.45;;;1.88;;
78686;SDS011;68002;52.310;6.990;2023-02-28T09:37:46;2.42;;;1.75;;
78686;SDS011;68002;52.310;6.990;2023-02-28T09:40:12;3.13;;;1.75;;
78686;SDS011;68002;52.310;6.990;2023-02-28T09:42:38;2.85;;;1.77;;
78686;SDS011;68002;52.310;6.990;2023-02-28T09:45:11;2.00;;;0.90;;
78686;SDS011;68002;52.310;6.990;2023-02-28T09:47:47;3.65;;;3.45;;
78686;SDS011;68002;52.310;6.990;2023-02-28T09:52:54;2.30;;;1.20;;
78686;SDS011;68002;52.310;6.990;2023-02-28T09:57:57;3.58;;;2.15;;
78686;SDS011;68002;52.310;6.990;2023-02-28T10:00:33;2.13;;;1.37;;
78686;SDS011;68002;52.310;6.990;2023-02-28T10:03:08;2.60;;;1.13;;
78686;SDS011;68002;52.310;6.990;2023-02-28T10:05:52;3.42;;;1.92;;
78686;SDS011;68002;52.310;6.990;2023-02-28T10:08:29;3.85;;;2.20;;
78686;SDS011;68002;52.310;6.990;2023-02-28T10:11:02;2.80;;;2.58;;
78686;SDS011;68002;52.310;6.990;2023-02-28T10:16:33;2.38;;;2.00;;
78686;SDS011;68002;52.310;6.990;2023-02-28T10:19:03;2.22;;;1.92;;
78686;SDS011;68002;52.310;6.990;2023-02-28T10:21:36;1.48;;;0.80;;
78686;SDS011;68002;52.310;6.990;2023-02-28T10:24:49;2.38;;;1.80;;
78686;SDS011;68002;52.310;6.990;2023-02-28T10:27:05;2.22;;;1.70;;
78686;SDS011;68002;52.310;6.990;2023-02-28T10:29:37;2.15;;;1.55;;
78686;SDS011;68002;52.310;6.990;2023-02-28T10:32:08;1.92;;;0.93;;
78686;SDS011;68002;52.310;6.990;2023-02-28T10:34:35;3.97;;;1.45;;
78686;SDS011;68002;52.310;6.990;2023-02-28T10:37:01;2.30;;;1.47;;
78686;SDS011;68002;52.310;6.990;2023-02-28T10:39:33;2.28;;;1.45;;
78686;SDS011;68002;52.310;6.990;2023-02-28T10:42:00;3.05;;;1.45;;
78686;SDS011;68002;52.310;6.990;2023-02-28T10:44:26;2.40;;;0.73;;
78686;SDS011;68002;52.310;6.990;2023-02-28T10:46:51;1.43;;;0.70;;
78686;SDS011;68002;52.310;6.990;2023-02-28T10:49:20;1.50;;;0.60;;
78686;SDS011;68002;52.310;6.990;2023-02-28T10:51:49;1.48;;;0.77;;
78686;SDS011;68002;52.310;6.990;2023-02-28T10:54:19;1.48;;;0.93;;
78686;SDS011;68002;52.310;6.990;2023-02-28T10:57:09;2.08;;;1.20;;
78686;SDS011;68002;52.310;6.990;2023-02-28T10:59:42;1.40;;;0.60;;
78686;SDS011;68002;52.310;6.990;2023-02-28T11:02:28;1.90;;;0.70;;
78686;SDS011;68002;52.310;6.990;2023-02-28T11:04:54;2.03;;;1.00;;
78686;SDS011;68002;52.310;6.990;2023-02-28T11:07:20;2.20;;;1.10;;
78686;SDS011;68002;52.310;6.990;2023-02-28T11:09:51;2.42;;;0.93;;
78686;SDS011;68002;52.310;6.990;2023-02-28T11:12:31;1.58;;;0.95;;
78686;SDS011;68002;52.310;6.990;2023-02-28T11:15:07;3.28;;;1.50;;
78686;SDS011;68002;52.310;6.990;2023-02-28T11:17:55;1.58;;;1.20;;
78686;SDS011;68002;52.310;6.990;2023-02-28T11:20:23;2.40;;;1.73;;
78686;SDS011;68002;52.310;6.990;2023-02-28T11:22:52;2.13;;;1.33;;
78686;SDS011;68002;52.310;6.990;2023-02-28T11:25:21;1.58;;;0.93;;
78686;SDS011;68002;52.310;6.990;2023-02-28T11:27:49;1.88;;;1.10;;
78686;SDS011;68002;52.310;6.990;2023-02-28T11:32:53;3.25;;;1.42;;
78686;SDS011;68002;52.310;6.990;2023-02-28T11:35:39;2.63;;;2.43;;
78686;SDS011;68002;52.310;6.990;2023-02-28T11:38:05;2.05;;;1.13;;
78686;SDS011;68002;52.310;6.990;2023-02-28T11:40:39;1.92;;;0.98;;
78686;SDS011;68002;52.310;6.990;2023-02-28T11:52:00;2.05;;;0.82;;
78686;SDS011;68002;52.310;6.990;2023-02-28T12:19:50;1.98;;;1.00;;
78686;SDS011;68002;52.310;6.990;2023-02-28T12:25:02;2.13;;;1.10;;
78686;SDS011;68002;52.310;6.990;2023-02-28T12:27:46;2.78;;;1.38;;
78686;SDS011;68002;52.310;6.990;2023-02-28T12:32:41;3.63;;;1.40;;
78686;SDS011;68002;52.310;6.990;2023-02-28T12:37:36;2.97;;;1.27;;
78686;SDS011;68002;52.310;6.990;2023-02-28T12:40:05;2.55;;;1.42;;
78686;SDS011;68002;52.310;6.990;2023-02-28T12:42:38;2.28;;;1.15;;
78686;SDS011;68002;52.310;6.990;2023-02-28T12:47:42;2.50;;;1.80;;
78686;SDS011;68002;52.310;6.990;2023-02-28T12:50:10;2.72;;;1.52;;
78686;SDS011;68002;52.310;6.990;2023-02-28T12:55:29;2.03;;;1.10;;
78686;SDS011;68002;52.310;6.990;2023-02-28T13:09:29;1.65;;;0.90;;
78686;SDS011;68002;52.310;6.990;2023-02-28T13:11:55;1.75;;;1.08;;
78686;SDS011;68002;52.310;6.990;2023-02-28T13:17:03;2.58;;;1.30;;
78686;SDS011;68002;52.310;6.990;2023-02-28T13:19:35;2.53;;;1.95;;
78686;SDS011;68002;52.310;6.990;2023-02-28T13:22:02;1.88;;;1.05;;
78686;SDS011;68002;52.310;6.990;2023-02-28T13:30:02;2.90;;;2.10;;
78686;SDS011;68002;52.310;6.990;2023-02-28T13:38:59;1.83;;;1.13;;
78686;SDS011;68002;52.310;6.990;2023-02-28T13:46:27;2.80;;;1.50;;
78686;SDS011;68002;52.310;6.990;2023-02-28T13:48:53;2.05;;;1.23;;
78686;SDS011;68002;52.310;6.990;2023-02-28T13:54:06;1.77;;;1.05;;
78686;SDS011;68002;52.310;6.990;2023-02-28T13:56:52;2.53;;;1.25;;
78686;SDS011;68002;52.310;6.990;2023-02-28T14:02:45;2.65;;;2.40;;
78686;SDS011;68002;52.310;6.990;2023-02-28T14:05:27;3.03;;;1.65;;
78686;SDS011;68002;52.310;6.990;2023-02-28T14:07:54;3.65;;;1.98;;
78686;SDS011;68002;52.310;6.990;2023-02-28T14:10:32;3.45;;;1.60;;
78686;SDS011;68002;52.310;6.990;2023-02-28T14:15:57;4.65;;;1.70;;
78686;SDS011;68002;52.310;6.990;2023-02-28T14:26:57;3.38;;;2.72;;
78686;SDS011;68002;52.310;6.990;2023-02-28T14:35:13;4.47;;;3.38;;
78686;SDS011;68002;52.310;6.990;2023-02-28T14:37:49;3.25;;;2.40;;
78686;SDS011;68002;52.310;6.990;2023-02-28T14:40:15;2.83;;;1.73;;
78686;SDS011;68002;52.310;6.990;2023-02-28T14:42:55;2.40;;;1.60;;
78686;SDS011;68002;52.310;6.990;2023-02-28T14:45:22;3.17;;;2.22;;
78686;SDS011;68002;52.310;6.990;2023-02-28T14:47:51;2.70;;;2.15;;
78686;SDS011;68002;52.310;6.990;2023-02-28T14:50:17;2.35;;;1.27;;
78686;SDS011;68002;52.310;6.990;2023-02-28T14:52:44;2.10;;;1.55;;
78686;SDS011;68002;52.310;6.990;2023-02-28T14:55:12;4.03;;;3.20;;
78686;SDS011;68002;52.310;6.990;2023-02-28T14:57:50;3.45;;;2.53;;
78686;SDS011;68002;52.310;6.990;2023-02-28T15:00:24;4.00;;;3.55;;
78686;SDS011;68002;52.310;6.990;2023-02-28T15:02:51;3.45;;;2.63;;
78686;SDS011;68002;52.310;6.990;2023-02-28T15:08:00;3.28;;;2.25;;
78686;SDS011;68002;52.310;6.990;2023-02-28T15:10:28;1.85;;;1.33;;
78686;SDS011;68002;52.310;6.990;2023-02-28T15:12:57;2.42;;;1.55;;
78686;SDS011;68002;52.310;6.990;2023-02-28T15:18:20;3.40;;;1.58;;
78686;SDS011;68002;52.310;6.990;2023-02-28T15:20:53;3.95;;;2.67;;
78686;SDS011;68002;52.310;6.990;2023-02-28T15:23:20;2.30;;;1.88;;
78686;SDS011;68002;52.310;6.990;2023-02-28T15:25:46;3.35;;;1.80;;
78686;SDS011;68002;52.310;6.990;2023-02-28T15:28:14;3.35;;;3.05;;
78686;SDS011;68002;52.310;6.990;2023-02-28T15:31:20;3.22;;;2.63;;
78686;SDS011;68002;52.310;6.990;2023-02-28T15:34:02;3.60;;;2.88;;
78686;SDS011;68002;52.310;6.990;2023-02-28T15:36:30;3.33;;;2.53;;
78686;SDS011;68002;52.310;6.990;2023-02-28T15:38:56;3.13;;;2.72;;
78686;SDS011;68002;52.310;6.990;2023-02-28T15:41:26;2.83;;;1.65;;
78686;SDS011;68002;52.310;6.990;2023-02-28T15:52:16;3.78;;;3.47;;
78686;SDS011;68002;52.310;6.990;2023-02-28T15:57:33;4.47;;;4.07;;
78686;SDS011;68002;52.310;6.990;2023-02-28T16:00:00;2.57;;;1.60;;
78686;SDS011;68002;52.310;6.990;2023-02-28T16:02:34;3.42;;;2.92;;
78686;SDS011;68002;52.310;6.990;2023-02-28T16:07:33;3.17;;;2.42;;
78686;SDS011;68002;52.310;6.990;2023-02-28T16:10:03;3.20;;;2.53;;
78686;SDS011;68002;52.310;6.990;2023-02-28T16:12:30;2.92;;;2.55;;
78686;SDS011;68002;52.310;6.990;2023-02-28T16:14:59;4.82;;;4.07;;
78686;SDS011;68002;52.310;6.990;2023-02-28T16:17:26;7.70;;;3.58;;
78686;SDS011;68002;52.310;6.990;2023-02-28T16:19:54;3.42;;;3.13;;
78686;SDS011;68002;52.310;6.990;2023-02-28T16:22:20;2.90;;;1.90;;
78686;SDS011;68002;52.310;6.990;2023-02-28T16:24:46;3.47;;;2.95;;
78686;SDS011;68002;52.310;6.990;2023-02-28T16:27:14;2.67;;;2.37;;
78686;SDS011;68002;52.310;6.990;2023-02-28T16:29:43;3.47;;;2.95;;
78686;SDS011;68002;52.310;6.990;2023-02-28T16:32:10;2.83;;;2.55;;
78686;SDS011;68002;52.310;6.990;2023-02-28T16:34:39;5.07;;;3.55;;
78686;SDS011;68002;52.310;6.990;2023-02-28T16:37:09;4.67;;;3.40;;
78686;SDS011;68002;52.310;6.990;2023-02-28T16:39:36;5.65;;;3.30;;
78686;SDS011;68002;52.310;6.990;2023-02-28T16:42:01;4.20;;;3.10;;
78686;SDS011;68002;52.310;6.990;2023-02-28T16:44:27;3.43;;;2.40;;
78686;SDS011;68002;52.310;6.990;2023-02-28T16:46:56;4.43;;;2.97;;
78686;SDS011;68002;52.310;6.990;2023-02-28T16:49:21;4.90;;;3.90;;
78686;SDS011;68002;52.310;6.990;2023-02-28T16:51:47;3.65;;;3.33;;
78686;SDS011;68002;52.310;6.990;2023-02-28T16:54:12;4.93;;;3.63;;
78686;SDS011;68002;52.310;6.990;2023-02-28T16:56:38;3.43;;;2.83;;
78686;SDS011;68002;52.310;6.990;2023-02-28T16:59:07;3.92;;;2.00;;
78686;SDS011;68002;52.310;6.990;2023-02-28T17:01:33;3.45;;;2.80;;
78686;SDS011;68002;52.310;6.990;2023-02-28T17:03:58;3.30;;;2.67;;
78686;SDS011;68002;52.310;6.990;2023-02-28T17:06:24;4.73;;;4.33;;
78686;SDS011;68002;52.310;6.990;2023-02-28T17:08:52;5.35;;;3.25;;
78686;SDS011;68002;52.310;6.990;2023-02-28T17:11:17;4.47;;;2.50;;
78686;SDS011;68002;52.310;6.990;2023-02-28T17:13:43;3.97;;;3.50;;
78686;SDS011;68002;52.310;6.990;2023-02-28T17:16:31;3.78;;;2.83;;
78686;SDS011;68002;52.310;6.990;2023-02-28T17:18:57;3.33;;;2.90;;
78686;SDS011;68002;52.310;6.990;2023-02-28T17:21:24;5.80;;;3.78;;
78686;SDS011;68002;52.310;6.990;2023-02-28T17:23:50;4.47;;;3.20;;
78686;SDS011;68002;52.310;6.990;2023-02-28T17:26:16;4.43;;;3.40;;
78686;SDS011;68002;52.310;6.990;2023-02-28T17:28:43;7.45;;;4.70;;
78686;SDS011;68002;52.310;6.990;2023-02-28T17:31:09;7.33;;;4.80;;
78686;SDS011;68002;52.310;6.990;2023-02-28T17:33:34;5.93;;;3.83;;
78686;SDS011;68002;52.310;6.990;2023-02-28T17:35:59;10.17;;;5.53;;
78686;SDS011;68002;52.310;6.990;2023-02-28T17:38:24;10.93;;;5.17;;
78686;SDS011;68002;52.310;6.990;2023-02-28T17:40:49;8.17;;;4.37;;
78686;SDS011;68002;52.310;6.990;2023-02-28T17:43:15;4.77;;;3.70;;
78686;SDS011;68002;52.310;6.990;2023-02-28T17:45:40;4.50;;;4.00;;